Private Wetterstation Wechselburg
Wetterdaten: Woche 05.12.11 - 11.12.11 (KW49)
Datum Zeit Temp. +2m Bodentemp. Temp.+5cm Temp. Wind Windchill X Diff Temp. Feuchte +2m Feuchte +5cm Sonnenschein Luftdruck Regen Wind Richtung Sonnenschein UV Taupunkt Windchill Windben
05.12.2011 00:00 6,9 C 11,9 C 6,5 C 6,3 C 5,3 C 0,0 C 85 % 89 % 0 % 995,7 hPa 0,7 l/m 6,1 km/h (2 Bft) S-SO 0,00 h 0,0 UV-I 4,5 C 4,2 C 7,4 km/h (2 Bft)
05.12.2011 01:00 6,5 C 11,8 C 5,8 C 6,2 C 5,6 C 0,0 C 87 % 93 % 0 % 994,4 hPa 4,1 l/m 3,6 km/h (1 Bft) SW 0,00 h 0,0 UV-I 4,4 C 5,4 C 4,3 km/h (1 Bft)
05.12.2011 02:00 5,7 C 11,9 C 5,0 C 5,2 C 3,9 C 0,0 C 87 % 94 % 0 % 994,0 hPa 4,8 l/m 6,1 km/h (2 Bft) W-SW 0,00 h 0,0 UV-I 3,6 C 2,6 C 8,0 km/h (2 Bft)
05.12.2011 03:00 4,7 C 11,8 C 4,3 C 4,6 C 4,3 C 0,0 C 88 % 94 % 0 % 993,0 hPa 0,7 l/m 1,7 km/h (1 Bft) S 0,00 h 0,0 UV-I 2,9 C 4,3 C 2,7 km/h (1 Bft)
05.12.2011 04:00 4,3 C 11,8 C 4,1 C 3,8 C 2,4 C 0,0 C 90 % 94 % 0 % 993,4 hPa 1,4 l/m 6,8 km/h (2 Bft) W-SW 0,00 h 0,0 UV-I 2,7 C 0,6 C 9,8 km/h (2 Bft)
05.12.2011 05:00 4,1 C 11,7 C 3,9 C 3,4 C 1,6 C 0,0 C 90 % 95 % 0 % 994,7 hPa 1,4 l/m 9,9 km/h (2 Bft) W-SW 0,00 h 0,0 UV-I 2,6 C -1,4 C 13,0 km/h (3 Bft)
05.12.2011 06:00 4,3 C 11,6 C 4,0 C 3,6 C 1,2 C 0,0 C 89 % 95 % 0 % 995,4 hPa 0,0 l/m 12,7 km/h (3 Bft) SW 0,00 h 0,0 UV-I 2,7 C -2,4 C 18,9 km/h (3 Bft)
05.12.2011 07:00 4,3 C 11,5 C 3,8 C 3,3 C 0,7 C 0,0 C 88 % 94 % 0 % 997,3 hPa 0,7 l/m 13,6 km/h (3 Bft) W-SW 0,00 h 0,0 UV-I 2,5 C -3,3 C 16,0 km/h (3 Bft)
05.12.2011 08:00 4,1 C 11,2 C 3,6 C 3,4 C 1,2 C 0,0 C 86 % 94 % 0 % 999,2 hPa 0,0 l/m 12,6 km/h (3 Bft) SW 0,00 h 0,0 UV-I 2,1 C -2,5 C 15,8 km/h (3 Bft)
05.12.2011 09:00 4,1 C 11,1 C 3,6 C 3,5 C 1,1 C 0,0 C 83 % 92 % 0 % 1001,2 hPa 0,0 l/m 13,6 km/h (3 Bft) W-SW 0,00 h 0,0 UV-I 1,6 C -2,8 C 17,6 km/h (3 Bft)
05.12.2011 10:00 4,1 C 10,8 C 3,8 C 3,5 C 1,3 C 0,0 C 80 % 88 % 0 % 1002,2 hPa 0,0 l/m 16,3 km/h (3 Bft) SW 0,00 h 0,0 UV-I 0,9 C -3,1 C 19,9 km/h (4 Bft)
05.12.2011 11:00 4,3 C 10,7 C 4,1 C 3,7 C 1,8 C 0,0 C 77 % 83 % 0 % 1002,9 hPa 0,0 l/m 15,4 km/h (3 Bft) W-SW 0,00 h 0,0 UV-I 0,6 C -2,2 C 19,0 km/h (3 Bft)
05.12.2011 12:00 4,6 C 10,6 C 4,6 C 4,0 C 2,1 C 0,0 C 76 % 80 % 0 % 1003,6 hPa 0,0 l/m 15,3 km/h (3 Bft) W-SW 0,00 h 0,0 UV-I 0,7 C -1,9 C 20,6 km/h (4 Bft)
05.12.2011 13:00 4,8 C 10,5 C 4,7 C 4,2 C 2,1 C 0,0 C 73 % 77 % 0 % 1004,0 hPa 0,0 l/m 16,0 km/h (3 Bft) W-SW 0,00 h 0,0 UV-I 0,3 C -1,9 C 20,3 km/h (4 Bft)
05.12.2011 14:00 4,4 C 10,4 C 4,3 C 3,5 C 1,4 C 0,0 C 73 % 77 % 0 % 1004,7 hPa 0,0 l/m 13,3 km/h (3 Bft) W-SW 0,00 h 0,0 UV-I -0,0 C -2,3 C 15,6 km/h (3 Bft)
05.12.2011 15:00 4,1 C 10,3 C 3,9 C 3,2 C 0,4 C 0,0 C 73 % 77 % 0 % 1005,1 hPa 0,0 l/m 14,6 km/h (3 Bft) W-SW 0,00 h 0,0 UV-I -0,4 C -3,9 C 18,0 km/h (3 Bft)
05.12.2011 16:00 3,5 C 10,3 C 3,2 C 2,6 C 0,4 C 0,0 C 76 % 80 % 0 % 1006,2 hPa 0,0 l/m 8,6 km/h (2 Bft) W-SW 0,00 h 0,0 UV-I -0,4 C -2,3 C 12,3 km/h (3 Bft)
05.12.2011 17:00 2,9 C 10,3 C 2,8 C 2,3 C 1,1 C 0,0 C 78 % 81 % 0 % 1006,6 hPa 0,0 l/m 3,9 km/h (1 Bft) SW 0,00 h 0,0 UV-I -0,6 C 1,1 C 5,0 km/h (1 Bft)
05.12.2011 18:00 3,0 C 10,2 C 3,0 C 2,3 C 0,6 C 0,0 C 76 % 79 % 0 % 1007,1 hPa 0,0 l/m 7,4 km/h (2 Bft) W-SW 0,00 h 0,0 UV-I -0,8 C -1,7 C 9,2 km/h (2 Bft)
05.12.2011 19:00 2,6 C 10,2 C 2,5 C 1,8 C -0,1 C 0,0 C 78 % 81 % 0 % 1007,4 hPa 0,0 l/m 6,1 km/h (2 Bft) SW 0,00 h 0,0 UV-I -0,9 C -2,1 C 7,1 km/h (2 Bft)
05.12.2011 20:00 2,8 C 10,1 C 2,8 C 2,1 C 0,5 C 0,0 C 76 % 79 % 0 % 1007,3 hPa 0,0 l/m 6,5 km/h (2 Bft) S 0,00 h 0,0 UV-I -1,0 C -1,6 C 9,0 km/h (2 Bft)
05.12.2011 21:00 3,1 C 10,0 C 3,0 C 2,4 C 0,4 C 0,0 C 74 % 77 % 0 % 1007,9 hPa 0,0 l/m 8,4 km/h (2 Bft) SW 0,00 h 0,0 UV-I -1,1 C -2,3 C 13,3 km/h (3 Bft)
05.12.2011 22:00 3,3 C 9,9 C 3,2 C 2,5 C 0,1 C 0,0 C 74 % 77 % 0 % 1007,6 hPa 0,0 l/m 11,3 km/h (2 Bft) SW 0,00 h 0,0 UV-I -0,9 C -3,5 C 15,0 km/h (3 Bft)
05.12.2011 23:00 1,7 C 10,2 C 1,4 C 0,6 C -3,0 C 0,0 C 85 % 88 % 0 % 1007,7 hPa 0,0 l/m 15,5 km/h (3 Bft) W-SW 0,00 h 0,0 UV-I -0,6 C -8,3 C 19,1 km/h (3 Bft)
06.12.2011 00:00 1,4 C 10,2 C 0,9 C 0,5 C -2,1 C 0,0 C 86 % 92 % 0 % 1007,2 hPa 0,0 l/m 8,9 km/h (2 Bft) W-SW 0,00 h 0,0 UV-I -0,6 C -5,3 C 11,2 km/h (2 Bft)
06.12.2011 01:00 1,7 C 10,0 C 1,2 C 0,6 C -2,4 C 0,0 C 85 % 92 % 0 % 1007,7 hPa 0,7 l/m 10,0 km/h (2 Bft) W-SW 0,00 h 0,0 UV-I -0,5 C -6,1 C 14,4 km/h (3 Bft)
06.12.2011 02:00 1,9 C 9,9 C 1,3 C 0,8 C -2,2 C 0,0 C 85 % 92 % 0 % 1007,9 hPa 0,0 l/m 9,6 km/h (2 Bft) SW 0,00 h 0,0 UV-I -0,4 C -5,8 C 15,0 km/h (3 Bft)
06.12.2011 03:00 1,9 C 9,7 C 1,4 C 1,0 C -1,0 C 0,0 C 83 % 92 % 0 % 1008,2 hPa 0,0 l/m 5,7 km/h (1 Bft) SO 0,00 h 0,0 UV-I -0,7 C -2,5 C 6,8 km/h (2 Bft)
06.12.2011 04:00 1,9 C 9,7 C 1,5 C 1,2 C -0,1 C 0,0 C 84 % 92 % 0 % 1008,1 hPa 0,0 l/m 4,3 km/h (1 Bft) S-SO 0,00 h 0,0 UV-I -0,5 C -1,0 C 6,7 km/h (2 Bft)
06.12.2011 05:00 2,0 C 9,5 C 1,7 C 1,3 C -0,0 C 0,0 C 82 % 91 % 0 % 1008,0 hPa 0,0 l/m 4,9 km/h (1 Bft) SO 0,00 h 0,0 UV-I -0,8 C -1,2 C 8,0 km/h (2 Bft)
06.12.2011 06:00 2,3 C 9,4 C 1,9 C 1,7 C 0,4 C 0,0 C 81 % 90 % 0 % 1007,9 hPa 0,0 l/m 4,7 km/h (1 Bft) O-SO 0,00 h 0,0 UV-I -0,7 C -0,5 C 7,9 km/h (2 Bft)
06.12.2011 07:00 2,6 C 9,4 C 2,3 C 2,0 C 0,8 C 0,0 C 80 % 89 % 0 % 1008,1 hPa 0,0 l/m 5,4 km/h (1 Bft) O-NO 0,00 h 0,0 UV-I -0,5 C -0,8 C 7,9 km/h (2 Bft)
06.12.2011 08:00 2,6 C 9,4 C 2,3 C 2,0 C 0,4 C 0,0 C 82 % 90 % 0 % 1008,4 hPa 0,0 l/m 6,8 km/h (2 Bft) W-SW 0,00 h 0,0 UV-I -0,2 C -1,6 C 9,4 km/h (2 Bft)
06.12.2011 09:00 2,5 C 9,4 C 2,5 C 1,8 C 0,1 C 0,0 C 84 % 90 % 0 % 1008,7 hPa 0,0 l/m 7,9 km/h (2 Bft) W-SW 0,00 h 0,0 UV-I 0,2 C -2,6 C 10,9 km/h (2 Bft)
06.12.2011 10:00 3,2 C 9,4 C 3,1 C 2,6 C 0,9 C 0,0 C 82 % 86 % 0 % 1008,8 hPa 0,0 l/m 9,9 km/h (2 Bft) W-SW 0,00 h 0,0 UV-I 0,3 C -2,2 C 12,4 km/h (3 Bft)
06.12.2011 11:00 3,9 C 9,3 C 3,6 C 3,5 C 2,0 C 0,0 C 78 % 82 % 0 % 1009,0 hPa 0,0 l/m 11,5 km/h (2 Bft) W 0,00 h 0,0 UV-I 0,3 C -1,2 C 14,0 km/h (3 Bft)
06.12.2011 12:00 4,6 C 9,3 C 4,6 C 4,3 C 2,9 C 0,0 C 74 % 78 % 0 % 1008,8 hPa 0,0 l/m 13,5 km/h (3 Bft) W-SW 0,00 h 0,0 UV-I 0,4 C -0,6 C 17,2 km/h (3 Bft)
06.12.2011 13:00 4,7 C 9,4 C 4,7 C 4,3 C 2,3 C 0,0 C 71 % 75 % 0 % 1008,5 hPa 0,0 l/m 15,3 km/h (3 Bft) W-SW 0,00 h 0,0 UV-I -0,0 C -1,6 C 19,3 km/h (3 Bft)
06.12.2011 14:00 4,7 C 9,4 C 4,6 C 4,3 C 2,6 C 0,0 C 70 % 74 % 0 % 1008,2 hPa 0,0 l/m 14,5 km/h (3 Bft) SW 0,00 h 0,0 UV-I -0,3 C -1,1 C 19,5 km/h (3 Bft)
06.12.2011 15:00 4,5 C 9,4 C 4,3 C 3,8 C 1,7 C 0,0 C 70 % 74 % 0 % 1008,5 hPa 0,0 l/m 12,2 km/h (2 Bft) SW 0,00 h 0,0 UV-I -0,4 C -1,7 C 12,8 km/h (3 Bft)
06.12.2011 16:00 3,6 C 9,5 C 3,4 C 3,0 C 1,5 C 0,0 C 74 % 77 % 0 % 1008,7 hPa 0,0 l/m 6,0 km/h (2 Bft) W-SW 0,00 h 0,0 UV-I -0,6 C -0,1 C 7,5 km/h (2 Bft)
06.12.2011 17:00 3,2 C 9,5 C 3,0 C 2,4 C 1,0 C 0,0 C 76 % 79 % 0 % 1008,5 hPa 0,0 l/m 4,8 km/h (1 Bft) O-NO 0,00 h 0,0 UV-I -0,7 C -0,0 C 6,0 km/h (2 Bft)
06.12.2011 18:00 2,8 C 9,5 C 2,8 C 2,1 C 0,7 C 0,0 C 78 % 81 % 0 % 1008,6 hPa 0,0 l/m 4,6 km/h (1 Bft) S 0,00 h 0,0 UV-I -0,6 C -0,1 C 6,5 km/h (2 Bft)
06.12.2011 19:00 2,9 C 9,5 C 2,8 C 2,3 C 1,0 C 0,0 C 79 % 82 % 0 % 1009,0 hPa 0,0 l/m 4,8 km/h (1 Bft) S 0,00 h 0,0 UV-I -0,3 C 0,1 C 6,4 km/h (2 Bft)
06.12.2011 20:00 3,1 C 9,4 C 3,0 C 2,6 C 1,7 C 0,0 C 80 % 82 % 0 % 1009,5 hPa 0,0 l/m 4,3 km/h (1 Bft) SO 0,00 h 0,0 UV-I -0,1 C 1,2 C 4,9 km/h (1 Bft)
06.12.2011 21:00 3,1 C 9,4 C 2,9 C 2,5 C 1,5 C 0,0 C 80 % 82 % 0 % 1009,9 hPa 0,0 l/m 4,4 km/h (1 Bft) S 0,00 h 0,0 UV-I -0,1 C 1,0 C 5,6 km/h (1 Bft)
06.12.2011 22:00 3,2 C 9,4 C 3,1 C 2,5 C 1,1 C 0,0 C 79 % 81 % 0 % 1009,9 hPa 0,0 l/m 5,7 km/h (1 Bft) W-SW 0,00 h 0,0 UV-I -0,2 C -0,4 C 8,2 km/h (2 Bft)
06.12.2011 23:00 2,8 C 9,3 C 2,6 C 1,9 C 0,1 C 0,0 C 78 % 81 % 0 % 1010,5 hPa 0,0 l/m 6,4 km/h (2 Bft) W-SW 0,00 h 0,0 UV-I -0,6 C -1,9 C 10,2 km/h (2 Bft)
07.12.2011 00:00 3,0 C 9,3 C 2,9 C 2,4 C 0,7 C 0,0 C 79 % 82 % 0 % 1010,8 hPa 0,0 l/m 8,2 km/h (2 Bft) W-SW 0,00 h 0,0 UV-I -0,3 C -1,8 C 14,3 km/h (3 Bft)
07.12.2011 01:00 3,1 C 9,3 C 2,9 C 2,2 C -0,3 C 0,0 C 78 % 81 % 0 % 1011,5 hPa 0,0 l/m 11,5 km/h (2 Bft) SW 0,00 h 0,2 UV-I -0,3 C -4,0 C 13,8 km/h (3 Bft)
07.12.2011 02:00 2,4 C 9,3 C 2,3 C 1,6 C -0,8 C 0,0 C 80 % 83 % 0 % 1011,2 hPa 0,0 l/m 8,5 km/h (2 Bft) W-SW 0,00 h 0,1 UV-I -0,7 C -3,8 C 9,3 km/h (2 Bft)
07.12.2011 03:00 2,1 C 9,3 C 2,0 C 1,2 C -0,5 C 0,0 C 81 % 84 % 0 % 1011,4 hPa 0,0 l/m 5,9 km/h (2 Bft) W-SW 0,00 h 0,0 UV-I -0,8 C -2,3 C 6,3 km/h (2 Bft)
07.12.2011 04:00 2,2 C 9,2 C 2,2 C 1,7 C 0,8 C 0,0 C 82 % 84 % 0 % 1010,6 hPa 0,0 l/m 3,9 km/h (1 Bft) S 0,00 h 0,2 UV-I -0,6 C 0,2 C 5,2 km/h (1 Bft)
07.12.2011 05:00 2,7 C 9,2 C 2,6 C 2,1 C 0,9 C 0,0 C 80 % 83 % 0 % 1009,8 hPa 0,0 l/m 5,0 km/h (1 Bft) S-SO 0,00 h 0,6 UV-I -0,4 C -0,1 C 5,6 km/h (1 Bft)
07.12.2011 06:00 2,9 C 9,3 C 2,8 C 2,3 C 0,7 C 0,0 C 82 % 85 % 0 % 1009,4 hPa 0,0 l/m 6,9 km/h (2 Bft) SW 0,00 h 0,3 UV-I 0,2 C -1,5 C 10,0 km/h (2 Bft)
07.12.2011 07:00 2,0 C 9,7 C 1,8 C 1,6 C 0,6 C 0,0 C 85 % 90 % 0 % 1009,0 hPa 1,4 l/m 3,1 km/h (1 Bft) S-SW 0,00 h 0,2 UV-I -0,2 C 0,2 C 3,3 km/h (1 Bft)
07.12.2011 08:00 1,3 C 9,7 C 1,3 C 1,1 C 0,8 C 0,0 C 89 % 93 % 0 % 1008,0 hPa 0,0 l/m 1,1 km/h (1 Bft) S 0,00 h 0,3 UV-I -0,4 C 0,8 C 1,7 km/h (1 Bft)
07.12.2011 09:00 2,8 C 9,5 C 2,5 C 2,4 C 1,5 C 0,0 C 88 % 94 % 0 % 1006,9 hPa 0,0 l/m 5,5 km/h (1 Bft) S 0,00 h 0,0 UV-I 1,0 C -0,1 C 6,8 km/h (2 Bft)
07.12.2011 10:00 4,1 C 9,4 C 3,5 C 3,7 C 2,8 C 0,0 C 84 % 92 % 0 % 1006,0 hPa 0,0 l/m 6,3 km/h (2 Bft) SO 0,00 h 0,0 UV-I 1,6 C 1,2 C 7,6 km/h (2 Bft)
07.12.2011 11:00 4,6 C 9,4 C 4,1 C 4,2 C 2,7 C 0,0 C 84 % 92 % 0 % 1004,3 hPa 0,0 l/m 8,0 km/h (2 Bft) S 0,00 h 0,0 UV-I 2,2 C 0,4 C 11,1 km/h (2 Bft)
07.12.2011 12:00 5,4 C 9,2 C 4,9 C 5,0 C 4,0 C 0,0 C 81 % 90 % 0 % 1003,1 hPa 0,0 l/m 7,5 km/h (2 Bft) S-SO 0,00 h 0,0 UV-I 2,3 C 2,1 C 9,9 km/h (2 Bft)
07.12.2011 13:00 5,2 C 9,5 C 4,7 C 4,5 C 2,5 C 0,0 C 82 % 89 % 0 % 1000,9 hPa 0,7 l/m 9,5 km/h (2 Bft) S 0,00 h 0,0 UV-I 2,4 C -0,2 C 12,5 km/h (3 Bft)
07.12.2011 14:00 5,5 C 9,4 C 5,2 C 5,0 C 3,7 C 0,0 C 81 % 88 % 0 % 999,9 hPa 0,0 l/m 8,7 km/h (2 Bft) SO 0,00 h 0,0 UV-I 2,4 C 1,4 C 12,1 km/h (2 Bft)
07.12.2011 15:00 5,6 C 9,5 C 5,3 C 4,9 C 2,8 C 0,0 C 80 % 86 % 0 % 999,9 hPa 0,0 l/m 12,5 km/h (3 Bft) W-SW 0,00 h 0,0 UV-I 2,5 C -0,6 C 16,8 km/h (3 Bft)
07.12.2011 16:00 5,5 C 9,5 C 5,2 C 4,6 C 1,9 C 0,0 C 79 % 83 % 0 % 1001,2 hPa 0,0 l/m 18,0 km/h (3 Bft) W-SW 0,00 h 0,0 UV-I 2,0 C -2,6 C 25,6 km/h (4 Bft)
07.12.2011 17:00 5,2 C 9,5 C 4,9 C 4,4 C 1,9 C 0,0 C 74 % 78 % 0 % 1002,3 hPa 0,0 l/m 15,8 km/h (3 Bft) W-SW 0,00 h 0,0 UV-I 0,8 C -2,2 C 18,9 km/h (3 Bft)
07.12.2011 18:00 4,9 C 9,5 C 4,6 C 4,1 C 1,6 C 0,0 C 76 % 80 % 0 % 1003,7 hPa 0,0 l/m 15,2 km/h (3 Bft) W-SW 0,00 h 0,2 UV-I 1,0 C -2,5 C 16,6 km/h (3 Bft)
07.12.2011 19:00 4,0 C 9,5 C 3,9 C 3,3 C 1,2 C 0,0 C 79 % 82 % 0 % 1004,4 hPa 0,0 l/m 10,6 km/h (2 Bft) SW 0,00 h 0,6 UV-I 0,7 C -2,1 C 13,7 km/h (3 Bft)
07.12.2011 20:00 3,9 C 9,5 C 3,6 C 3,0 C 0,5 C 0,0 C 77 % 81 % 0 % 1005,1 hPa 0,0 l/m 12,8 km/h (3 Bft) W-SW 0,00 h 1,5 UV-I 0,2 C -3,3 C 15,2 km/h (3 Bft)
07.12.2011 21:00 4,5 C 9,5 C 4,2 C 3,7 C 1,4 C 0,0 C 74 % 78 % 0 % 1005,7 hPa 0,0 l/m 15,5 km/h (3 Bft) S 0,00 h 4,1 UV-I 0,3 C -2,8 C 19,2 km/h (3 Bft)
07.12.2011 22:00 4,8 C 9,5 C 4,6 C 4,0 C 1,5 C 0,0 C 71 % 76 % 0 % 1006,3 hPa 0,0 l/m 17,4 km/h (3 Bft) W-SW 0,00 h 5,5 UV-I 0,0 C -2,9 C 19,5 km/h (3 Bft)
07.12.2011 23:00 5,2 C 9,4 C 4,9 C 4,2 C 1,5 C 0,0 C 68 % 72 % 0 % 1007,6 hPa 0,0 l/m 21,6 km/h (4 Bft) W-SW 0,00 h 1,7 UV-I -0,2 C -3,6 C 26,9 km/h (4 Bft)
08.12.2011 00:00 5,2 C 9,4 C 5,0 C 4,3 C 1,6 C 0,0 C 67 % 72 % 0 % 1008,4 hPa 0,0 l/m 19,7 km/h (3 Bft) W-SW 0,00 h 0,2 UV-I -0,3 C -3,2 C 23,4 km/h (4 Bft)
08.12.2011 01:00 5,2 C 9,4 C 5,0 C 4,2 C 1,4 C 0,0 C 67 % 71 % 0 % 1009,1 hPa 0,0 l/m 21,0 km/h (4 Bft) W-SW 0,00 h 0,0 UV-I -0,3 C -3,6 C 28,1 km/h (4 Bft)
08.12.2011 02:00 5,2 C 9,4 C 5,0 C 4,2 C 1,2 C 0,0 C 69 % 73 % 0 % 1009,9 hPa 0,0 l/m 22,8 km/h (4 Bft) SW 0,00 h 0,0 UV-I 0,1 C -4,1 C 32,1 km/h (5 Bft)
08.12.2011 03:00 5,3 C 9,4 C 5,1 C 4,3 C 1,5 C 0,0 C 69 % 73 % 0 % 1011,1 hPa 0,0 l/m 20,9 km/h (4 Bft) W-SW 0,00 h 0,3 UV-I 0,1 C -3,4 C 24,8 km/h (4 Bft)
08.12.2011 04:00 5,4 C 9,4 C 5,2 C 4,5 C 1,7 C 0,0 C 69 % 72 % 0 % 1011,8 hPa 0,0 l/m 20,0 km/h (4 Bft) W-SW 0,00 h 0,3 UV-I 0,1 C -3,2 C 26,9 km/h (4 Bft)
08.12.2011 05:00 5,2 C 9,4 C 5,0 C 4,3 C 1,5 C 0,0 C 72 % 75 % 0 % 1013,0 hPa 0,0 l/m 20,1 km/h (4 Bft) SW 0,00 h 0,1 UV-I 0,5 C -3,3 C 25,3 km/h (4 Bft)
08.12.2011 06:00 5,2 C 9,5 C 5,1 C 4,3 C 2,0 C 0,0 C 74 % 77 % 0 % 1014,9 hPa 0,0 l/m 17,4 km/h (3 Bft) W-SW 0,00 h 0,2 UV-I 0,9 C -2,4 C 22,5 km/h (4 Bft)
08.12.2011 07:00 5,3 C 9,5 C 5,2 C 4,6 C 2,2 C 0,0 C 76 % 79 % 0 % 1016,5 hPa 0,0 l/m 14,6 km/h (3 Bft) W-SW 0,00 h 0,2 UV-I 1,4 C -1,6 C 16,7 km/h (3 Bft)
08.12.2011 08:00 5,2 C 9,6 C 5,0 C 4,5 C 2,2 C 0,0 C 78 % 82 % 0 % 1018,1 hPa 0,0 l/m 13,9 km/h (3 Bft) W-SW 0,00 h 0,1 UV-I 1,7 C -1,5 C 16,5 km/h (3 Bft)
08.12.2011 09:00 5,2 C 9,6 C 5,1 C 4,6 C 2,7 C 0,0 C 79 % 82 % 0 % 1019,7 hPa 0,0 l/m 12,9 km/h (3 Bft) W-SW 0,00 h 0,0 UV-I 1,8 C -0,8 C 16,1 km/h (3 Bft)
08.12.2011 10:00 5,3 C 9,7 C 5,3 C 4,7 C 3,1 C 0,0 C 79 % 82 % 0 % 1020,7 hPa 0,0 l/m 12,7 km/h (3 Bft) W-SW 0,00 h 0,0 UV-I 1,9 C -0,2 C 15,6 km/h (3 Bft)
08.12.2011 11:00 5,5 C 9,7 C 5,5 C 5,1 C 3,5 C 0,0 C 78 % 80 % 0 % 1021,8 hPa 0,0 l/m 13,0 km/h (3 Bft) W-SW 0,00 h 0,0 UV-I 1,9 C 0,2 C 14,5 km/h (3 Bft)
08.12.2011 12:00 5,7 C 9,7 C 5,6 C 5,2 C 3,4 C 0,0 C 74 % 77 % 0 % 1022,6 hPa 0,0 l/m 12,9 km/h (3 Bft) W-SW 0,00 h 0,0 UV-I 1,4 C 0,2 C 15,1 km/h (3 Bft)
08.12.2011 13:00 5,9 C 9,7 C 6,0 C 5,5 C 4,1 C 0,0 C 71 % 74 % 0 % 1022,5 hPa 0,0 l/m 12,6 km/h (3 Bft) W-SW 0,00 h 0,0 UV-I 1,1 C 1,1 C 16,1 km/h (3 Bft)
08.12.2011 14:00 5,9 C 9,8 C 5,9 C 5,5 C 4,1 C 0,0 C 70 % 73 % 0 % 1022,8 hPa 0,0 l/m 10,8 km/h (2 Bft) W-SW 0,00 h 0,0 UV-I 0,8 C 1,4 C 13,4 km/h (3 Bft)
08.12.2011 15:00 5,1 C 9,8 C 5,0 C 4,7 C 3,6 C 0,0 C 70 % 73 % 0 % 1022,3 hPa 0,0 l/m 6,4 km/h (2 Bft) W 0,00 h 0,0 UV-I -0,0 C 2,2 C 8,2 km/h (2 Bft)
08.12.2011 16:00 4,6 C 9,8 C 4,4 C 4,1 C 3,3 C 0,0 C 71 % 74 % 0 % 1022,1 hPa 0,0 l/m 5,0 km/h (1 Bft) S-SO 0,00 h 0,0 UV-I -0,3 C 2,4 C 6,2 km/h (2 Bft)
08.12.2011 17:00 4,7 C 9,8 C 4,6 C 4,1 C 3,1 C 0,0 C 71 % 74 % 0 % 1020,8 hPa 0,0 l/m 6,5 km/h (2 Bft) SW 0,00 h 0,0 UV-I -0,1 C 1,3 C 7,8 km/h (2 Bft)
08.12.2011 18:00 4,8 C 9,8 C 4,7 C 4,3 C 2,8 C 0,0 C 73 % 75 % 0 % 1019,9 hPa 0,0 l/m 8,0 km/h (2 Bft) S 0,00 h 0,0 UV-I 0,3 C 0,6 C 9,9 km/h (2 Bft)
08.12.2011 19:00 5,3 C 9,8 C 5,1 C 4,8 C 3,2 C 0,0 C 73 % 76 % 0 % 1018,7 hPa 0,0 l/m 9,5 km/h (2 Bft) S 0,00 h 0,0 UV-I 0,8 C 0,7 C 12,3 km/h (3 Bft)
08.12.2011 20:00 5,9 C 9,8 C 5,8 C 5,4 C 3,7 C 0,0 C 70 % 73 % 0 % 1017,6 hPa 0,0 l/m 11,4 km/h (2 Bft) S-SO 0,00 h 0,0 UV-I 0,8 C 0,9 C 16,6 km/h (3 Bft)
08.12.2011 21:00 6,2 C 9,8 C 6,0 C 5,7 C 4,3 C 0,0 C 68 % 71 % 0 % 1016,1 hPa 0,0 l/m 9,5 km/h (2 Bft) S 0,00 h 0,0 UV-I 0,7 C 2,0 C 12,2 km/h (2 Bft)
08.12.2011 22:00 6,5 C 9,8 C 6,3 C 6,0 C 4,6 C 0,0 C 68 % 71 % 0 % 1014,4 hPa 0,0 l/m 9,2 km/h (2 Bft) SW 0,00 h 0,7 UV-I 0,9 C 2,4 C 13,6 km/h (3 Bft)
08.12.2011 23:00 6,9 C 9,9 C 6,6 C 6,5 C 5,5 C 0,0 C 69 % 72 % 0 % 1013,3 hPa 0,0 l/m 8,0 km/h (2 Bft) W 0,00 h 0,9 UV-I 1,5 C 3,7 C 11,4 km/h (2 Bft)
09.12.2011 00:00 7,1 C 10,0 C 6,7 C 6,5 C 4,9 C 0,0 C 72 % 77 % 0 % 1012,5 hPa 0,0 l/m 8,6 km/h (2 Bft) W 0,00 h 1,1 UV-I 2,3 C 2,9 C 14,5 km/h (3 Bft)
09.12.2011 01:00 6,5 C 10,4 C 5,7 C 5,6 C 3,4 C 0,0 C 80 % 89 % 0 % 1011,2 hPa 0,7 l/m 8,9 km/h (2 Bft) S 0,00 h 0,0 UV-I 3,2 C 1,1 C 11,9 km/h (2 Bft)
09.12.2011 02:00 6,7 C 10,4 C 5,8 C 6,0 C 4,1 C 0,0 C 80 % 90 % 0 % 1009,8 hPa 0,7 l/m 9,5 km/h (2 Bft) S 0,00 h 0,4 UV-I 3,6 C 1,6 C 13,2 km/h (3 Bft)
09.12.2011 03:00 7,6 C 10,2 C 6,7 C 7,1 C 5,8 C 0,0 C 76 % 87 % 0 % 1009,4 hPa 0,0 l/m 8,8 km/h (2 Bft) S 0,00 h 0,2 UV-I 3,6 C 3,8 C 9,9 km/h (2 Bft)
09.12.2011 04:00 8,0 C 10,1 C 7,4 C 7,6 C 6,4 C 0,0 C 76 % 85 % 0 % 1008,6 hPa 0,0 l/m 9,8 km/h (2 Bft) SO 0,00 h 0,9 UV-I 3,9 C 4,4 C 14,1 km/h (3 Bft)
09.12.2011 05:00 8,2 C 10,2 C 7,9 C 7,8 C 6,2 C 0,0 C 77 % 81 % 0 % 1007,5 hPa 0,0 l/m 11,6 km/h (2 Bft) S-SO 0,00 h 1,9 UV-I 4,4 C 3,8 C 18,8 km/h (3 Bft)
09.12.2011 06:00 8,7 C 10,3 C 8,3 C 8,4 C 7,3 C 0,0 C 77 % 81 % 0 % 1007,1 hPa 0,0 l/m 9,8 km/h (2 Bft) SW 0,00 h 1,1 UV-I 4,9 C 5,4 C 14,9 km/h (3 Bft)
09.12.2011 07:00 9,0 C 10,4 C 8,7 C 8,8 C 7,9 C 0,0 C 78 % 81 % 0 % 1006,8 hPa 0,0 l/m 8,8 km/h (2 Bft) W-SW 0,00 h 0,2 UV-I 5,3 C 6,4 C 13,8 km/h (3 Bft)
09.12.2011 08:00 7,3 C 10,9 C 6,8 C 6,8 C 5,4 C 0,0 C 86 % 90 % 0 % 1008,4 hPa 2,1 l/m 8,2 km/h (2 Bft) W-SW 0,00 h 0,0 UV-I 5,1 C 3,5 C 10,9 km/h (2 Bft)
09.12.2011 09:00 5,9 C 11,1 C 5,7 C 5,8 C 5,5 C 0,0 C 88 % 93 % 0 % 1009,2 hPa 1,4 l/m 2,4 km/h (1 Bft) SW 0,00 h 0,0 UV-I 4,2 C 5,3 C 4,2 km/h (1 Bft)
09.12.2011 10:00 6,2 C 11,1 C 5,7 C 5,9 C 5,0 C 0,0 C 88 % 94 % 0 % 1010,3 hPa 0,0 l/m 6,0 km/h (2 Bft) W-SW 0,00 h 0,0 UV-I 4,4 C 3,9 C 6,6 km/h (2 Bft)
09.12.2011 11:00 6,4 C 11,0 C 5,6 C 6,0 C 4,5 C 0,0 C 82 % 93 % 0 % 1010,7 hPa 0,0 l/m 10,7 km/h (2 Bft) W-SW 0,00 h 0,0 UV-I 3,5 C 2,1 C 13,4 km/h (3 Bft)
09.12.2011 12:00 6,3 C 10,6 C 5,2 C 5,5 C 3,3 C 0,0 C 72 % 87 % 0 % 1011,2 hPa 0,0 l/m 15,7 km/h (3 Bft) W-SW 0,00 h 0,0 UV-I 1,5 C -0,4 C 19,7 km/h (3 Bft)
09.12.2011 13:00 5,9 C 10,6 C 5,5 C 5,7 C 4,5 C 0,0 C 73 % 84 % 0 % 1010,5 hPa 0,0 l/m 9,6 km/h (2 Bft) W 0,00 h 0,0 UV-I 1,4 C 2,1 C 11,1 km/h (2 Bft)
09.12.2011 14:00 5,8 C 10,6 C 5,5 C 5,3 C 4,0 C 0,0 C 73 % 80 % 0 % 1010,6 hPa 0,0 l/m 8,7 km/h (2 Bft) W 0,00 h 0,0 UV-I 1,4 C 1,8 C 10,3 km/h (2 Bft)
09.12.2011 15:00 5,2 C 10,5 C 4,9 C 4,5 C 2,6 C 0,0 C 77 % 81 % 0 % 1010,7 hPa 0,0 l/m 9,5 km/h (2 Bft) W-SW 0,00 h 0,0 UV-I 1,4 C 0,0 C 10,5 km/h (2 Bft)
09.12.2011 16:00 4,2 C 10,6 C 4,1 C 3,5 C 2,1 C 0,0 C 80 % 84 % 0 % 1011,1 hPa 0,0 l/m 5,1 km/h (1 Bft) W-SW 0,00 h 0,0 UV-I 1,1 C 1,2 C 6,4 km/h (2 Bft)
09.12.2011 17:00 3,9 C 10,5 C 3,8 C 3,1 C 1,5 C 0,0 C 80 % 83 % 0 % 1011,3 hPa 0,0 l/m 5,7 km/h (1 Bft) W-SW 0,00 h 0,0 UV-I 0,7 C -0,0 C 8,1 km/h (2 Bft)
09.12.2011 18:00 4,0 C 10,3 C 3,7 C 3,1 C 0,6 C 0,0 C 77 % 81 % 0 % 1011,6 hPa 0,0 l/m 9,9 km/h (2 Bft) SW 0,00 h 0,0 UV-I 0,4 C -2,6 C 15,6 km/h (3 Bft)
09.12.2011 19:00 3,6 C 10,3 C 3,2 C 2,6 C 0,1 C 0,0 C 77 % 82 % 0 % 1012,2 hPa 0,0 l/m 10,0 km/h (2 Bft) W-SW 0,00 h 0,0 UV-I -0,0 C -3,2 C 12,2 km/h (2 Bft)
09.12.2011 20:00 3,0 C 10,2 C 2,8 C 2,1 C 0,1 C 0,0 C 79 % 82 % 0 % 1012,9 hPa 0,0 l/m 6,5 km/h (2 Bft) W-SW 0,00 h 0,0 UV-I -0,4 C -1,9 C 9,0 km/h (2 Bft)
09.12.2011 21:00 2,8 C 10,1 C 2,6 C 1,8 C -0,3 C 0,0 C 79 % 82 % 0 % 1013,3 hPa 0,0 l/m 7,2 km/h (2 Bft) SW 0,00 h 0,0 UV-I -0,6 C -2,8 C 9,8 km/h (2 Bft)
09.12.2011 22:00 2,6 C 10,0 C 2,3 C 1,5 C -1,3 C 0,0 C 78 % 82 % 0 % 1013,3 hPa 0,0 l/m 10,7 km/h (2 Bft) SW 0,00 h 0,0 UV-I -0,9 C -5,1 C 12,3 km/h (3 Bft)
09.12.2011 23:00 2,3 C 9,9 C 2,1 C 1,5 C -0,3 C 0,0 C 79 % 82 % 0 % 1013,7 hPa 0,0 l/m 5,5 km/h (1 Bft) SO 0,00 h 0,0 UV-I -1,0 C -1,6 C 7,9 km/h (2 Bft)
10.12.2011 00:00 2,1 C 9,8 C 2,0 C 1,3 C -0,5 C 0,0 C 79 % 82 % 0 % 1014,0 hPa 0,0 l/m 4,8 km/h (1 Bft) S 0,00 h 0,0 UV-I -1,1 C -1,6 C 7,3 km/h (2 Bft)
10.12.2011 01:00 2,0 C 9,7 C 1,9 C 1,1 C -0,6 C 0,0 C 79 % 82 % 0 % 1014,4 hPa 0,0 l/m 4,8 km/h (1 Bft) SO 0,00 h 0,0 UV-I -1,2 C -1,7 C 8,1 km/h (2 Bft)
10.12.2011 02:00 2,0 C 9,6 C 1,8 C 1,1 C -0,9 C 0,0 C 79 % 82 % 0 % 1014,1 hPa 0,0 l/m 5,6 km/h (1 Bft) W-SW 0,00 h 0,0 UV-I -1,3 C -2,8 C 8,2 km/h (2 Bft)
10.12.2011 03:00 2,0 C 9,5 C 2,0 C 1,2 C -0,4 C 0,0 C 78 % 81 % 0 % 1013,9 hPa 0,0 l/m 4,7 km/h (1 Bft) S 0,00 h 0,0 UV-I -1,4 C -1,5 C 7,2 km/h (2 Bft)
10.12.2011 04:00 2,3 C 9,4 C 2,2 C 1,6 C 0,2 C 0,0 C 80 % 82 % 0 % 1013,3 hPa 0,0 l/m 5,1 km/h (1 Bft) SO 0,00 h 0,0 UV-I -0,8 C -1,1 C 6,1 km/h (2 Bft)
10.12.2011 05:00 2,8 C 9,3 C 2,7 C 2,1 C 0,7 C 0,0 C 80 % 82 % 0 % 1013,1 hPa 0,0 l/m 6,7 km/h (2 Bft) W-SW 0,00 h 0,5 UV-I -0,4 C -1,3 C 11,2 km/h (2 Bft)
10.12.2011 06:00 3,1 C 9,3 C 2,9 C 2,3 C 0,0 C 0,0 C 79 % 83 % 0 % 1013,3 hPa 0,0 l/m 10,5 km/h (2 Bft) SW 0,00 h 1,2 UV-I -0,1 C -3,4 C 13,9 km/h (3 Bft)
10.12.2011 07:00 2,6 C 9,4 C 2,4 C 1,6 C -1,0 C 0,0 C 83 % 86 % 0 % 1013,5 hPa 0,0 l/m 9,9 km/h (2 Bft) W-SW 0,00 h 0,4 UV-I -0,1 C -4,5 C 11,7 km/h (2 Bft)
10.12.2011 08:00 2,4 C 9,4 C 2,2 C 1,4 C -0,6 C 0,0 C 84 % 86 % 0 % 1013,6 hPa 0,0 l/m 7,0 km/h (2 Bft) W-SW 0,00 h 0,2 UV-I -0,1 C -3,1 C 9,2 km/h (2 Bft)
10.12.2011 09:00 2,7 C 9,3 C 2,6 C 2,1 C 0,5 C 0,0 C 82 % 85 % 0 % 1014,9 hPa 0,0 l/m 8,0 km/h (2 Bft) S-SW 0,00 h 0,3 UV-I -0,0 C -2,1 C 9,2 km/h (2 Bft)
10.12.2011 10:00 3,4 C 9,2 C 3,4 C 2,9 C 1,3 C 0,0 C 79 % 82 % 0 % 1015,4 hPa 0,0 l/m 10,6 km/h (2 Bft) SW 0,00 h 0,0 UV-I 0,1 C -1,9 C 12,8 km/h (3 Bft)
10.12.2011 11:00 3,9 C 9,2 C 3,9 C 3,5 C 2,0 C 0,0 C 76 % 80 % 0 % 1015,5 hPa 0,0 l/m 11,6 km/h (2 Bft) O-NO 0,00 h 0,0 UV-I 0,2 C -1,3 C 15,7 km/h (3 Bft)
10.12.2011 12:00 4,5 C 9,1 C 4,4 C 4,2 C 2,8 C 0,0 C 73 % 77 % 0 % 1015,4 hPa 0,0 l/m 13,0 km/h (3 Bft) W-SW 0,00 h 0,0 UV-I 0,0 C -0,6 C 14,7 km/h (3 Bft)
10.12.2011 13:00 4,9 C 9,1 C 4,9 C 4,6 C 3,4 C 0,0 C 67 % 71 % 0 % 1015,6 hPa 0,0 l/m 11,6 km/h (2 Bft) W-SW 0,00 h 0,0 UV-I -0,7 C 0,5 C 14,5 km/h (3 Bft)
10.12.2011 14:00 4,7 C 9,2 C 4,7 C 4,2 C 2,8 C 0,0 C 64 % 68 % 0 % 1015,5 hPa 0,0 l/m 10,2 km/h (2 Bft) W-SW 0,00 h 0,1 UV-I -1,6 C -0,0 C 12,3 km/h (3 Bft)
10.12.2011 15:00 4,4 C 9,2 C 4,3 C 3,9 C 2,4 C 0,0 C 67 % 71 % 0 % 1015,6 hPa 0,0 l/m 8,5 km/h (2 Bft) SW 0,00 h 0,2 UV-I -1,1 C -0,1 C 10,4 km/h (2 Bft)
10.12.2011 16:00 3,9 C 9,3 C 3,8 C 3,3 C 1,2 C 0,0 C 68 % 72 % 0 % 1016,1 hPa 0,0 l/m 9,5 km/h (2 Bft) SW 0,00 h 1,2 UV-I -1,5 C -1,7 C 12,0 km/h (2 Bft)
10.12.2011 17:00 3,1 C 9,3 C 3,0 C 2,3 C 0,8 C 0,0 C 71 % 75 % 0 % 1017,0 hPa 0,0 l/m 7,0 km/h (2 Bft) W-SW 0,00 h 0,7 UV-I -1,6 C -1,5 C 9,0 km/h (2 Bft)
10.12.2011 18:00 2,8 C 9,3 C 2,8 C 2,1 C 0,3 C 0,0 C 73 % 76 % 0 % 1017,4 hPa 0,0 l/m 7,3 km/h (2 Bft) W-SW 0,00 h 0,8 UV-I -1,5 C -2,2 C 9,0 km/h (2 Bft)
10.12.2011 19:00 2,6 C 9,3 C 2,4 C 1,8 C -0,6 C 0,0 C 74 % 77 % 0 % 1017,6 hPa 0,0 l/m 8,7 km/h (2 Bft) W-SW 0,00 h 0,3 UV-I -1,6 C -3,6 C 11,4 km/h (2 Bft)
10.12.2011 20:00 1,8 C 9,2 C 1,7 C 1,1 C -0,4 C 0,0 C 76 % 79 % 0 % 1018,3 hPa 0,0 l/m 3,8 km/h (1 Bft) W-SW 0,00 h 0,0 UV-I -2,0 C -1,1 C 4,3 km/h (1 Bft)
10.12.2011 21:00 1,2 C 9,2 C 1,1 C 0,5 C -0,8 C 0,0 C 77 % 80 % 0 % 1018,8 hPa 0,0 l/m 2,3 km/h (1 Bft) S 0,00 h 0,0 UV-I -2,4 C -0,8 C 4,4 km/h (1 Bft)
10.12.2011 22:00 1,0 C 9,2 C 1,0 C 0,2 C -1,3 C 0,0 C 77 % 80 % 0 % 1019,5 hPa 0,0 l/m 3,8 km/h (1 Bft) SW 0,00 h 0,0 UV-I -2,6 C -2,0 C 5,4 km/h (1 Bft)
10.12.2011 23:00 0,7 C 9,0 C 0,8 C 0,1 C -1,2 C 0,0 C 77 % 80 % 0 % 1020,3 hPa 0,0 l/m 3,1 km/h (1 Bft) S-SO 0,00 h 0,0 UV-I -2,8 C -1,2 C 4,3 km/h (1 Bft)
11.12.2011 00:00 0,9 C 8,9 C 0,8 C 0,1 C -1,5 C 0,0 C 77 % 80 % 0 % 1020,4 hPa 0,0 l/m 3,8 km/h (1 Bft) S 0,00 h 0,0 UV-I -2,8 C -1,8 C 5,4 km/h (1 Bft)
11.12.2011 01:00 0,7 C 8,9 C 0,6 C -0,2 C -1,8 C 0,0 C 77 % 80 % 0 % 1020,4 hPa 0,0 l/m 4,0 km/h (1 Bft) S 0,00 h 0,0 UV-I -3,0 C -2,6 C 6,9 km/h (2 Bft)
11.12.2011 02:00 0,5 C 8,8 C 0,5 C -0,2 C -1,6 C 0,0 C 78 % 81 % 0 % 1020,9 hPa 0,0 l/m 3,3 km/h (1 Bft) S 0,00 h 0,0 UV-I -2,9 C -1,6 C 4,4 km/h (1 Bft)
11.12.2011 03:00 0,7 C 8,7 C 0,7 C -0,0 C -1,5 C 0,0 C 78 % 80 % 0 % 1020,9 hPa 0,0 l/m 3,5 km/h (1 Bft) O-SO 0,00 h 0,0 UV-I -2,7 C -1,5 C 5,8 km/h (2 Bft)
11.12.2011 04:00 0,9 C 8,6 C 1,0 C 0,4 C -0,6 C 0,0 C 77 % 80 % 0 % 1021,0 hPa 0,0 l/m 3,8 km/h (1 Bft) W-SW 0,00 h 0,6 UV-I -2,6 C -0,9 C 5,9 km/h (2 Bft)
11.12.2011 05:00 1,0 C 8,6 C 1,0 C 0,5 C -0,5 C 0,0 C 77 % 79 % 0 % 1020,9 hPa 0,0 l/m 2,7 km/h (1 Bft) SW 0,00 h 0,4 UV-I -2,6 C -0,5 C 3,4 km/h (1 Bft)
11.12.2011 06:00 0,2 C 8,6 C 0,2 C -0,4 C -1,6 C 0,0 C 78 % 81 % 0 % 1021,0 hPa 0,0 l/m 2,7 km/h (1 Bft) W-SW 0,00 h 0,0 UV-I -3,1 C -1,6 C 5,4 km/h (1 Bft)
11.12.2011 07:00 -0,2 C 8,5 C -0,2 C -0,7 C -1,9 C 0,0 C 80 % 82 % 0 % 1021,5 hPa 0,0 l/m 1,9 km/h (1 Bft) O-NO 0,00 h 0,0 UV-I -3,3 C -1,9 C 1,8 km/h (1 Bft)
11.12.2011 08:00 -0,4 C 8,5 C -0,4 C -1,1 C -2,6 C 0,0 C 80 % 83 % 0 % 1021,8 hPa 0,0 l/m 3,6 km/h (1 Bft) S 0,00 h 0,0 UV-I -3,4 C -2,6 C 4,5 km/h (1 Bft)
11.12.2011 09:00 0,1 C 8,4 C 0,2 C -0,3 C -1,1 C 0,0 C 80 % 82 % 0 % 1021,9 hPa 0,0 l/m 3,1 km/h (1 Bft) S-SO 0,00 h 0,0 UV-I -3,0 C -1,3 C 3,7 km/h (1 Bft)
11.12.2011 10:00 1,3 C 8,2 C 1,2 C 1,2 C 0,9 C 0,0 C 77 % 80 % 0 % 1021,8 hPa 0,0 l/m 3,8 km/h (1 Bft) O-NO 0,00 h 0,5 UV-I -2,3 C 0,9 C 5,9 km/h (2 Bft)
11.12.2011 11:00 2,3 C 8,2 C 2,2 C 2,7 C 2,6 C 0,4 C 74 % 76 % 11 % 1021,9 hPa 0,0 l/m 4,1 km/h (1 Bft) W-SW 0,00 h 0,0 UV-I -1,9 C 2,4 C 5,9 km/h (2 Bft)
11.12.2011 12:00 3,2 C 8,2 C 3,1 C 3,7 C 3,7 C 0,5 C 71 % 74 % 13 % 1021,5 hPa 0,0 l/m 4,6 km/h (1 Bft) W 0,00 h 0,0 UV-I -1,6 C 3,0 C 4,9 km/h (1 Bft)
11.12.2011 13:00 3,7 C 8,3 C 3,8 C 4,9 C 4,9 C 1,1 C 68 % 71 % 30 % 1021,1 hPa 0,0 l/m 3,5 km/h (1 Bft) N 0,00 h 0,0 UV-I -1,6 C 4,8 C 5,0 km/h (1 Bft)
11.12.2011 14:00 3,9 C 8,4 C 3,8 C 5,1 C 5,1 C 1,2 C 68 % 71 % 32 % 1020,5 hPa 0,0 l/m 3,5 km/h (1 Bft) SO 0,00 h 0,0 UV-I -1,6 C 5,1 C 4,9 km/h (1 Bft)
11.12.2011 15:00 3,0 C 8,5 C 2,9 C 2,6 C 1,9 C 0,0 C 70 % 73 % 0 % 1020,2 hPa 0,0 l/m 2,9 km/h (1 Bft) S-SO 0,00 h 0,0 UV-I -2,0 C 1,9 C 4,0 km/h (1 Bft)
11.12.2011 16:00 1,6 C 8,6 C 1,3 C 1,0 C -0,2 C 0,0 C 73 % 77 % 0 % 1020,2 hPa 0,0 l/m 0,2 km/h (0 Bft) N 0,00 h 0,0 UV-I -2,7 C -0,2 C 0,2 km/h (0 Bft)
11.12.2011 17:00 0,1 C 8,7 C 0,1 C -0,5 C -1,7 C 0,0 C 77 % 80 % 0 % 1020,0 hPa 0,0 l/m 0,0 km/h (0 Bft) N 0,00 h 0,0 UV-I -3,4 C -1,7 C 0,0 km/h (0 Bft)
11.12.2011 18:00 -1,0 C 8,9 C -0,7 C -1,6 C -2,6 C 0,0 C 80 % 83 % 0 % 1019,9 hPa 0,0 l/m 0,0 km/h (0 Bft) N 0,00 h 0,0 UV-I -3,9 C -2,6 C 0,0 km/h (0 Bft)
11.12.2011 19:00 -1,5 C 8,8 C -1,2 C -2,0 C -2,9 C 0,0 C 83 % 84 % 0 % 1019,5 hPa 0,0 l/m 0,0 km/h (0 Bft) N 0,00 h 0,0 UV-I -4,0 C -2,9 C 0,0 km/h (0 Bft)
11.12.2011 20:00 -1,9 C 8,8 C -1,6 C -2,4 C -3,4 C 0,0 C 84 % 85 % 0 % 1019,0 hPa 0,0 l/m 0,0 km/h (0 Bft) N 0,00 h 0,0 UV-I -4,3 C -3,4 C 0,0 km/h (0 Bft)
11.12.2011 21:00 -2,3 C 8,8 C -1,8 C -2,8 C -3,7 C 0,0 C 85 % 86 % 0 % 1018,2 hPa 0,0 l/m 0,0 km/h (0 Bft) N 0,00 h 0,0 UV-I -4,5 C -3,7 C 0,2 km/h (0 Bft)
11.12.2011 22:00 -2,8 C 8,7 C -2,2 C -3,2 C -4,1 C 0,0 C 87 % 87 % 0 % 1018,0 hPa 0,0 l/m 0,0 km/h (0 Bft) N 0,00 h 0,0 UV-I -4,7 C -4,1 C 0,0 km/h (0 Bft)
11.12.2011 23:00 -2,7 C 8,7 C -2,1 C -3,1 C -3,7 C 0,0 C 88 % 88 % 0 % 1017,5 hPa 0,0 l/m 0,1 km/h (0 Bft) N 0,00 h 0,0 UV-I -4,5 C -3,7 C 0,6 km/h (0 Bft)
Min-Datum _ 11.12.11 11.12.11 11.12.11 11.12.11 11.12.11 05.12.11 10.12.11 10.12.11 05.12.11 05.12.11 - 11.12.11 - - 05.12.11 11.12.11 05.12.11 05.12.11
_ Min-Zeit 22:29 12:30 22:29 23:00 23:00 00:00 14:00 14:00 00:00 03:40 - 16:10 - - 00:00 22:29 23:30 01:30
Minimum _ -2,9 C 8,1 C -2,3 C -3,4 C -4,3 C 0,0 C 62 % 66 % 0 % 992,8 hPa - 0,0 km/h (0 Bft) - - 0,0 UV-I -4,8 C -10,2 C 0,0 km/h (0 Bft)
Max-Datum _ 09.12.11 05.12.11 09.12.11 09.12.11 09.12.11 11.12.11 05.12.11 05.12.11 11.12.11 08.12.11 05.12.11 07.12.11 - 05.12.11 07.12.11 09.12.11 09.12.11 08.12.11
_ Max-Zeit 07:35 00:35 07:45 07:40 07:40 14:10 04:20 04:50 14:10 12:40 02:04 23:55 - 00:00 22:09 08:10 07:40 06:30
Maximum _ 9,1 C 11,9 C 8,8 C 8,9 C 8,1 C 2,4 C 90 % 95 % 63 % 1022,9 hPa 4,8 l/m 24,9 km/h
W-SW (4 Bft)
- 0,00 h 8,2 UV-I 5,7 C 6,8 C 52,6 km/h
W-SW (7 Bft)
Durchschnitt _ 3,6 C 9,7 C 3,4 C 3,0 C 1,4 C 0,0 C 78 % 82 % 1 % 1011,4 hPa #21,3 l/m 8,5 km/h (2 Bft) W-SW #0 min. 0,7 UV-I 0,0 C -0,8 C 11,1 km/h (2 Bft)
2011 www.wetterstation-wechselburg.de